Duvernay, Canada
Current Conditions -  °F | °C
As of 12:00 PM on Wednesday 22 Oct 2014 (Local Time) from CYUL Reporting Station
Overcast Overcast  
Wind Chill: 41°   Ceiling: 5200
Heat Index: 48°   Visibility: 15mi
Dew Point: 37°   Wind: 22mph
Humidity: 66%   Direction: 40°NE
Pressure: 30.29"   Gusts: 29mph
Location:  45.57°N, 73.85°W
Report Text: CYUL 221600Z 04019G25KT 15SM FEW030 OVC052 09/03 A3029 RMK SC1SC8 SC TR SLP257
Loading
Personal Weather Stations






























Interactive Weather Map New forecast layout! Learn more

10-Day Weather Forecast

Advertisements
Track Severe Weather on mobile